sensor_id;sensor_type;location;lat;lon;timestamp;pressure;altitude;pressure_sealevel;temperature;humidity
75640;BME280;64233;51.486;6.332;2023-04-24T00:02:06;99736.44;;;9.12;100.00
75640;BME280;64233;51.486;6.332;2023-04-24T00:04:36;99738.84;;;9.08;100.00
75640;BME280;64233;51.486;6.332;2023-04-24T00:07:01;99743.13;;;9.09;100.00
75640;BME280;64233;51.486;6.332;2023-04-24T00:09:27;99740.72;;;9.03;100.00
75640;BME280;64233;51.486;6.332;2023-04-24T00:11:52;99746.31;;;8.91;100.00
75640;BME280;64233;51.486;6.332;2023-04-24T00:14:18;99738.28;;;8.91;100.00
75640;BME280;64233;51.486;6.332;2023-04-24T00:16:44;99728.38;;;8.86;100.00
75640;BME280;64233;51.486;6.332;2023-04-24T00:19:09;99740.69;;;8.82;100.00
75640;BME280;64233;51.486;6.332;2023-04-24T00:21:37;99739.88;;;8.82;100.00
75640;BME280;64233;51.486;6.332;2023-04-24T00:24:02;99732.09;;;8.80;100.00
75640;BME280;64233;51.486;6.332;2023-04-24T00:26:28;99733.44;;;8.83;100.00
75640;BME280;64233;51.486;6.332;2023-04-24T00:28:53;99733.19;;;8.79;100.00
75640;BME280;64233;51.486;6.332;2023-04-24T00:31:18;99756.72;;;8.77;100.00
75640;BME280;64233;51.486;6.332;2023-04-24T00:33:44;99747.91;;;8.76;100.00
75640;BME280;64233;51.486;6.332;2023-04-24T00:36:09;99755.09;;;8.76;100.00
75640;BME280;64233;51.486;6.332;2023-04-24T00:38:34;99762.31;;;8.70;100.00
75640;BME280;64233;51.486;6.332;2023-04-24T00:41:00;99758.84;;;8.70;100.00
75640;BME280;64233;51.486;6.332;2023-04-24T00:43:25;99750.78;;;8.65;100.00
75640;BME280;64233;51.486;6.332;2023-04-24T00:45:50;99752.94;;;8.63;100.00
75640;BME280;64233;51.486;6.332;2023-04-24T00:48:16;99764.97;;;8.60;100.00
75640;BME280;64233;51.486;6.332;2023-04-24T00:50:41;99760.41;;;8.55;100.00
75640;BME280;64233;51.486;6.332;2023-04-24T00:53:07;99738.97;;;8.50;100.00
75640;BME280;64233;51.486;6.332;2023-04-24T00:55:32;99753.44;;;8.49;100.00
75640;BME280;64233;51.486;6.332;2023-04-24T00:57:58;99748.03;;;8.44;100.00
75640;BME280;64233;51.486;6.332;2023-04-24T01:00:23;99754.19;;;8.44;100.00
75640;BME280;64233;51.486;6.332;2023-04-24T01:02:49;99757.69;;;8.45;100.00
75640;BME280;64233;51.486;6.332;2023-04-24T01:05:15;99754.44;;;8.43;100.00
75640;BME280;64233;51.486;6.332;2023-04-24T01:07:43;99738.63;;;8.36;100.00
75640;BME280;64233;51.486;6.332;2023-04-24T01:10:11;99748.56;;;8.41;100.00
75640;BME280;64233;51.486;6.332;2023-04-24T01:12:37;99749.84;;;8.33;100.00
75640;BME280;64233;51.486;6.332;2023-04-24T01:15:03;99741.25;;;8.26;100.00
75640;BME280;64233;51.486;6.332;2023-04-24T01:17:29;99743.66;;;8.27;100.00
75640;BME280;64233;51.486;6.332;2023-04-24T01:19:54;99753.00;;;8.25;100.00
75640;BME280;64233;51.486;6.332;2023-04-24T01:22:22;99750.59;;;8.23;100.00
75640;BME280;64233;51.486;6.332;2023-04-24T01:24:47;99748.75;;;8.24;100.00
75640;BME280;64233;51.486;6.332;2023-04-24T01:27:13;99745.81;;;8.25;100.00
75640;BME280;64233;51.486;6.332;2023-04-24T01:29:39;99741.00;;;8.22;100.00
75640;BME280;64233;51.486;6.332;2023-04-24T01:32:05;99748.19;;;8.22;100.00
75640;BME280;64233;51.486;6.332;2023-04-24T01:34:31;99732.94;;;8.17;100.00
75640;BME280;64233;51.486;6.332;2023-04-24T01:36:57;99744.72;;;8.21;100.00
75640;BME280;64233;51.486;6.332;2023-04-24T01:39:22;99746.03;;;8.19;100.00
75640;BME280;64233;51.486;6.332;2023-04-24T01:41:51;99741.75;;;8.18;100.00
75640;BME280;64233;51.486;6.332;2023-04-24T01:44:17;99739.38;;;8.21;100.00
75640;BME280;64233;51.486;6.332;2023-04-24T01:46:43;99744.72;;;8.21;100.00
75640;BME280;64233;51.486;6.332;2023-04-24T01:49:08;99741.25;;;8.21;100.00
75640;BME280;64233;51.486;6.332;2023-04-24T01:51:34;99747.41;;;8.21;100.00
75640;BME280;64233;51.486;6.332;2023-04-24T01:53:59;99742.78;;;8.12;100.00
75640;BME280;64233;51.486;6.332;2023-04-24T01:56:25;99736.66;;;8.11;100.00
75640;BME280;64233;51.486;6.332;2023-04-24T01:58:54;99737.41;;;8.06;100.00
75640;BME280;64233;51.486;6.332;2023-04-24T02:01:20;99740.13;;;8.12;100.00
75640;BME280;64233;51.486;6.332;2023-04-24T02:03:46;99739.28;;;8.06;100.00
75640;BME280;64233;51.486;6.332;2023-04-24T02:06:11;99743.31;;;8.08;100.00
75640;BME280;64233;51.486;6.332;2023-04-24T02:08:36;99743.84;;;8.10;100.00
75640;BME280;64233;51.486;6.332;2023-04-24T02:11:01;99744.69;;;8.11;100.00
75640;BME280;64233;51.486;6.332;2023-04-24T02:13:27;99736.66;;;8.11;100.00
75640;BME280;64233;51.486;6.332;2023-04-24T02:15:52;99729.41;;;8.06;100.00
75640;BME280;64233;51.486;6.332;2023-04-24T02:18:18;99737.19;;;8.13;100.00
75640;BME280;64233;51.486;6.332;2023-04-24T02:20:43;99734.50;;;8.13;100.00
75640;BME280;64233;51.486;6.332;2023-04-24T02:23:08;99751.06;;;8.10;100.00
75640;BME280;64233;51.486;6.332;2023-04-24T02:25:34;99746.25;;;8.12;100.00
75640;BME280;64233;51.486;6.332;2023-04-24T02:27:59;99742.53;;;8.13;100.00
75640;BME280;64233;51.486;6.332;2023-04-24T02:30:24;99753.50;;;8.12;100.00
75640;BME280;64233;51.486;6.332;2023-04-24T02:32:50;99749.50;;;8.14;100.00
75640;BME280;64233;51.486;6.332;2023-04-24T02:35:15;99750.03;;;8.16;100.00
75640;BME280;64233;51.486;6.332;2023-04-24T02:37:41;99732.41;;;8.15;100.00
75640;BME280;64233;51.486;6.332;2023-04-24T02:40:07;99752.97;;;8.15;100.00
75640;BME280;64233;51.486;6.332;2023-04-24T02:42:32;99744.41;;;8.18;100.00
75640;BME280;64233;51.486;6.332;2023-04-24T02:44:57;99736.41;;;8.18;100.00
75640;BME280;64233;51.486;6.332;2023-04-24T02:47:23;99741.75;;;8.18;100.00
75640;BME280;64233;51.486;6.332;2023-04-24T02:49:48;99747.34;;;8.16;100.00
75640;BME280;64233;51.486;6.332;2023-04-24T02:52:14;99746.00;;;8.14;100.00
75640;BME280;64233;51.486;6.332;2023-04-24T02:54:39;99748.09;;;8.06;100.00
75640;BME280;64233;51.486;6.332;2023-04-24T02:57:05;99747.31;;;8.06;100.00
75640;BME280;64233;51.486;6.332;2023-04-24T02:59:31;99741.69;;;8.07;100.00
75640;BME280;64233;51.486;6.332;2023-04-24T03:01:56;99752.44;;;8.13;100.00
75640;BME280;64233;51.486;6.332;2023-04-24T03:04:22;99756.94;;;8.07;100.00
75640;BME280;64233;51.486;6.332;2023-04-24T03:06:48;99754.28;;;8.07;100.00
75640;BME280;64233;51.486;6.332;2023-04-24T03:09:13;99746.50;;;8.05;100.00
75640;BME280;64233;51.486;6.332;2023-04-24T03:11:38;99748.94;;;8.12;100.00
75640;BME280;64233;51.486;6.332;2023-04-24T03:14:03;99755.38;;;8.11;100.00
75640;BME280;64233;51.486;6.332;2023-04-24T03:16:29;99756.94;;;8.07;100.00
75640;BME280;64233;51.486;6.332;2023-04-24T03:18:54;99755.63;;;8.15;100.00
75640;BME280;64233;51.486;6.332;2023-04-24T03:21:19;99753.50;;;8.12;100.00
75640;BME280;64233;51.486;6.332;2023-04-24T03:23:45;99767.38;;;8.14;100.00
75640;BME280;64233;51.486;6.332;2023-04-24T03:26:10;99765.78;;;8.13;100.00
75640;BME280;64233;51.486;6.332;2023-04-24T03:28:35;99758.00;;;8.06;100.00
75640;BME280;64233;51.486;6.332;2023-04-24T03:31:02;99762.59;;;8.16;100.00
75640;BME280;64233;51.486;6.332;2023-04-24T03:33:28;99752.97;;;8.09;100.00
75640;BME280;64233;51.486;6.332;2023-04-24T03:35:53;99767.38;;;8.08;100.00
75640;BME280;64233;51.486;6.332;2023-04-24T03:38:18;99751.84;;;8.05;100.00
75640;BME280;64233;51.486;6.332;2023-04-24T03:40:43;99743.06;;;8.10;100.00
75640;BME280;64233;51.486;6.332;2023-04-24T03:43:09;99750.78;;;8.01;100.00
75640;BME280;64233;51.486;6.332;2023-04-24T03:45:34;99752.34;;;8.02;100.00
75640;BME280;64233;51.486;6.332;2023-04-24T03:47:59;99755.84;;;8.08;100.00
75640;BME280;64233;51.486;6.332;2023-04-24T03:50:25;99752.34;;;8.02;100.00
75640;BME280;64233;51.486;6.332;2023-04-24T03:52:51;99759.63;;;8.07;100.00
75640;BME280;64233;51.486;6.332;2023-04-24T03:55:17;99755.28;;;8.01;100.00
75640;BME280;64233;51.486;6.332;2023-04-24T03:57:42;99769.47;;;8.01;100.00
75640;BME280;64233;51.486;6.332;2023-04-24T04:00:08;99762.78;;;7.99;100.00
75640;BME280;64233;51.486;6.332;2023-04-24T04:02:34;99772.41;;;8.00;100.00
75640;BME280;64233;51.486;6.332;2023-04-24T04:04:59;99770.00;;;8.03;100.00
75640;BME280;64233;51.486;6.332;2023-04-24T04:07:24;99770.78;;;7.99;100.00
75640;BME280;64233;51.486;6.332;2023-04-24T04:09:50;99768.38;;;7.97;100.00
75640;BME280;64233;51.486;6.332;2023-04-24T04:12:15;99770.00;;;7.98;100.00
75640;BME280;64233;51.486;6.332;2023-04-24T04:14:41;99773.41;;;7.93;100.00
75640;BME280;64233;51.486;6.332;2023-04-24T04:17:06;99775.84;;;7.95;100.00
75640;BME280;64233;51.486;6.332;2023-04-24T04:19:31;99778.75;;;7.93;100.00
75640;BME280;64233;51.486;6.332;2023-04-24T04:21:57;99782.00;;;7.96;100.00
75640;BME280;64233;51.486;6.332;2023-04-24T04:24:22;99782.00;;;7.96;100.00
75640;BME280;64233;51.486;6.332;2023-04-24T04:26:49;99776.91;;;7.94;100.00
75640;BME280;64233;51.486;6.332;2023-04-24T04:29:17;99777.44;;;7.91;100.00
75640;BME280;64233;51.486;6.332;2023-04-24T04:31:43;99784.09;;;7.88;100.00
75640;BME280;64233;51.486;6.332;2023-04-24T04:34:08;99780.31;;;7.84;100.00
75640;BME280;64233;51.486;6.332;2023-04-24T04:36:34;99788.63;;;7.88;100.00
75640;BME280;64233;51.486;6.332;2023-04-24T04:39:02;99769.91;;;7.83;100.00
75640;BME280;64233;51.486;6.332;2023-04-24T04:41:27;99763.97;;;7.81;100.00
75640;BME280;64233;51.486;6.332;2023-04-24T04:43:53;99778.16;;;7.81;100.00
75640;BME280;64233;51.486;6.332;2023-04-24T04:46:18;99797.34;;;7.73;100.00
75640;BME280;64233;51.486;6.332;2023-04-24T04:48:44;99793.56;;;7.69;100.00
75640;BME280;64233;51.486;6.332;2023-04-24T04:51:09;99797.81;;;7.65;100.00
75640;BME280;64233;51.486;6.332;2023-04-24T04:53:35;99791.94;;;7.63;100.00
75640;BME280;64233;51.486;6.332;2023-04-24T04:56:00;99789.47;;;7.61;100.00
75640;BME280;64233;51.486;6.332;2023-04-24T04:58:25;99792.41;;;7.59;100.00
75640;BME280;64233;51.486;6.332;2023-04-24T05:00:51;99795.91;;;7.60;100.00
75640;BME280;64233;51.486;6.332;2023-04-24T05:03:17;99799.09;;;7.57;100.00
75640;BME280;64233;51.486;6.332;2023-04-24T05:05:42;99798.84;;;7.58;100.00
75640;BME280;64233;51.486;6.332;2023-04-24T05:08:08;99791.63;;;7.59;100.00
75640;BME280;64233;51.486;6.332;2023-04-24T05:10:34;99795.91;;;7.60;100.00
75640;BME280;64233;51.486;6.332;2023-04-24T05:12:59;99788.16;;;7.58;100.00
75640;BME280;64233;51.486;6.332;2023-04-24T05:15:26;99793.38;;;7.48;100.00
75640;BME280;64233;51.486;6.332;2023-04-24T05:17:51;99800.06;;;7.46;100.00
75640;BME280;64233;51.486;6.332;2023-04-24T05:20:16;99801.88;;;7.40;100.00
75640;BME280;64233;51.486;6.332;2023-04-24T05:22:42;99794.59;;;7.30;100.00
75640;BME280;64233;51.486;6.332;2023-04-24T05:25:08;99811.06;;;7.27;100.00
75640;BME280;64233;51.486;6.332;2023-04-24T05:27:33;99804.41;;;7.24;100.00
75640;BME280;64233;51.486;6.332;2023-04-24T05:29:59;99807.31;;;7.23;100.00
75640;BME280;64233;51.486;6.332;2023-04-24T05:32:24;99802.53;;;7.25;100.00
75640;BME280;64233;51.486;6.332;2023-04-24T05:34:49;99811.56;;;7.19;100.00
75640;BME280;64233;51.486;6.332;2023-04-24T05:37:15;99792.38;;;7.22;100.00
75640;BME280;64233;51.486;6.332;2023-04-24T05:39:40;99800.13;;;7.23;100.00
75640;BME280;64233;51.486;6.332;2023-04-24T05:42:06;99800.38;;;7.22;100.00
75640;BME280;64233;51.486;6.332;2023-04-24T05:44:32;99802.47;;;7.20;100.00
75640;BME280;64233;51.486;6.332;2023-04-24T05:46:57;99802.97;;;7.17;100.00
75640;BME280;64233;51.486;6.332;2023-04-24T05:49:22;99797.91;;;7.15;100.00
75640;BME280;64233;51.486;6.332;2023-04-24T05:51:48;99802.97;;;7.17;100.00
75640;BME280;64233;51.486;6.332;2023-04-24T05:54:13;99806.94;;;7.14;100.00
75640;BME280;64233;51.486;6.332;2023-04-24T05:56:39;99802.94;;;7.12;100.00
75640;BME280;64233;51.486;6.332;2023-04-24T05:59:04;99805.34;;;7.13;100.00
75640;BME280;64233;51.486;6.332;2023-04-24T06:01:30;99806.41;;;7.12;100.00
75640;BME280;64233;51.486;6.332;2023-04-24T06:03:56;99801.63;;;7.14;100.00
75640;BME280;64233;51.486;6.332;2023-04-24T06:06:21;99811.50;;;7.14;100.00
75640;BME280;64233;51.486;6.332;2023-04-24T06:08:47;99793.88;;;7.13;100.00
75640;BME280;64233;51.486;6.332;2023-04-24T06:11:12;99804.28;;;7.14;100.00
75640;BME280;64233;51.486;6.332;2023-04-24T06:13:37;99801.06;;;7.12;100.00
75640;BME280;64233;51.486;6.332;2023-04-24T06:16:04;99802.31;;;7.04;100.00
75640;BME280;64233;51.486;6.332;2023-04-24T06:18:29;99814.34;;;7.07;100.00
75640;BME280;64233;51.486;6.332;2023-04-24T06:20:55;99808.22;;;7.06;100.00
75640;BME280;64233;51.486;6.332;2023-04-24T06:23:21;99808.97;;;7.02;100.00
75640;BME280;64233;51.486;6.332;2023-04-24T06:25:46;99802.56;;;7.03;100.00
75640;BME280;64233;51.486;6.332;2023-04-24T06:28:12;99795.13;;;7.05;100.00
75640;BME280;64233;51.486;6.332;2023-04-24T06:30:37;99807.09;;;7.02;100.00
75640;BME280;64233;51.486;6.332;2023-04-24T06:33:02;99803.63;;;7.02;100.00
75640;BME280;64233;51.486;6.332;2023-04-24T06:35:28;99812.75;;;7.06;100.00
75640;BME280;64233;51.486;6.332;2023-04-24T06:37:53;99801.53;;;7.04;100.00
75640;BME280;64233;51.486;6.332;2023-04-24T06:40:21;99804.44;;;7.02;100.00
75640;BME280;64233;51.486;6.332;2023-04-24T06:42:46;99809.53;;;7.04;100.00
75640;BME280;64233;51.486;6.332;2023-04-24T06:45:11;99821.22;;;6.98;100.00
75640;BME280;64233;51.486;6.332;2023-04-24T06:47:36;99823.81;;;6.93;100.00
75640;BME280;64233;51.486;6.332;2023-04-24T06:50:03;99825.84;;;6.85;100.00
75640;BME280;64233;51.486;6.332;2023-04-24T06:52:28;99826.91;;;6.84;100.00
75640;BME280;64233;51.486;6.332;2023-04-24T06:55:01;99824.75;;;6.81;100.00
75640;BME280;64233;51.486;6.332;2023-04-24T06:57:27;99825.94;;;6.68;100.00
75640;BME280;64233;51.486;6.332;2023-04-24T06:59:53;99826.72;;;6.69;100.00
75640;BME280;64233;51.486;6.332;2023-04-24T07:02:18;99822.38;;;6.63;100.00
75640;BME280;64233;51.486;6.332;2023-04-24T07:04:43;99822.88;;;6.60;100.00
75640;BME280;64233;51.486;6.332;2023-04-24T07:07:08;99817.22;;;6.56;100.00
75640;BME280;64233;51.486;6.332;2023-04-24T07:09:37;99813.69;;;6.50;100.00
75640;BME280;64233;51.486;6.332;2023-04-24T07:12:06;99815.38;;;6.57;100.00
75640;BME280;64233;51.486;6.332;2023-04-24T07:14:32;99817.97;;;6.51;100.00
75640;BME280;64233;51.486;6.332;2023-04-24T07:16:57;99826.84;;;6.57;100.00
75640;BME280;64233;51.486;6.332;2023-04-24T07:19:23;99828.78;;;6.62;100.00
75640;BME280;64233;51.486;6.332;2023-04-24T07:21:48;99834.72;;;6.69;100.00
75640;BME280;64233;51.486;6.332;2023-04-24T07:24:13;99837.53;;;6.79;100.00
75640;BME280;64233;51.486;6.332;2023-04-24T07:26:39;99844.91;;;6.72;100.00
75640;BME280;64233;51.486;6.332;2023-04-24T07:29:05;99848.50;;;6.83;100.00
75640;BME280;64233;51.486;6.332;2023-04-24T07:31:30;99850.00;;;6.74;100.00
75640;BME280;64233;51.486;6.332;2023-04-24T07:33:56;99852.97;;;6.77;100.00
75640;BME280;64233;51.486;6.332;2023-04-24T07:36:23;99856.50;;;6.83;100.00
75640;BME280;64233;51.486;6.332;2023-04-24T07:38:49;99856.47;;;6.78;100.00
75640;BME280;64233;51.486;6.332;2023-04-24T07:41:15;99863.09;;;6.75;100.00
75640;BME280;64233;51.486;6.332;2023-04-24T07:43:41;99865.25;;;6.78;100.00
75640;BME280;64233;51.486;6.332;2023-04-24T07:46:09;99872.84;;;6.86;100.00
75640;BME280;64233;51.486;6.332;2023-04-24T07:48:35;99890.56;;;6.76;100.00
75640;BME280;64233;51.486;6.332;2023-04-24T07:51:00;99877.41;;;6.91;100.00
75640;BME280;64233;51.486;6.332;2023-04-24T07:53:25;99896.72;;;6.98;100.00
75640;BME280;64233;51.486;6.332;2023-04-24T07:55:51;99912.53;;;7.05;100.00
75640;BME280;64233;51.486;6.332;2023-04-24T07:58:16;99911.97;;;7.03;100.00
75640;BME280;64233;51.486;6.332;2023-04-24T08:00:41;99925.00;;;6.99;100.00
75640;BME280;64233;51.486;6.332;2023-04-24T08:03:07;99930.34;;;6.99;100.00
75640;BME280;64233;51.486;6.332;2023-04-24T08:05:32;99937.59;;;7.04;100.00
75640;BME280;64233;51.486;6.332;2023-04-24T08:07:58;99943.56;;;6.89;100.00
75640;BME280;64233;51.486;6.332;2023-04-24T08:10:24;99937.91;;;6.85;100.00
75640;BME280;64233;51.486;6.332;2023-04-24T08:12:50;99945.66;;;6.87;100.00
75640;BME280;64233;51.486;6.332;2023-04-24T08:15:15;99954.53;;;6.93;100.00
75640;BME280;64233;51.486;6.332;2023-04-24T08:17:41;99973.47;;;6.91;100.00
75640;BME280;64233;51.486;6.332;2023-04-24T08:20:08;99974.22;;;6.86;100.00
75640;BME280;64233;51.486;6.332;2023-04-24T08:22:38;99973.47;;;6.91;100.00
75640;BME280;64233;51.486;6.332;2023-04-24T08:25:04;99988.34;;;6.87;100.00
75640;BME280;64233;51.486;6.332;2023-04-24T08:27:29;100003.59;;;6.92;100.00
75640;BME280;64233;51.486;6.332;2023-04-24T08:29:55;100010.28;;;6.89;100.00
75640;BME280;64233;51.486;6.332;2023-04-24T08:32:20;100014.53;;;6.90;100.00
75640;BME280;64233;51.486;6.332;2023-04-24T08:34:45;100024.16;;;6.91;100.00
75640;BME280;64233;51.486;6.332;2023-04-24T08:37:11;100032.91;;;6.86;100.00
75640;BME280;64233;51.486;6.332;2023-04-24T08:39:37;100043.63;;;6.92;100.00
75640;BME280;64233;51.486;6.332;2023-04-24T08:42:04;100067.63;;;6.92;100.00
75640;BME280;64233;51.486;6.332;2023-04-24T08:44:33;100070.00;;;6.88;100.00
75640;BME280;64233;51.486;6.332;2023-04-24T08:47:00;100064.34;;;6.84;100.00
75640;BME280;64233;51.486;6.332;2023-04-24T08:49:27;100068.53;;;6.80;100.00
75640;BME280;64233;51.486;6.332;2023-04-24T08:51:53;100069.91;;;6.83;100.00
75640;BME280;64233;51.486;6.332;2023-04-24T08:54:18;100094.75;;;6.83;100.00
75640;BME280;64233;51.486;6.332;2023-04-24T08:56:45;100090.06;;;6.91;100.00
75640;BME280;64233;51.486;6.332;2023-04-24T08:59:13;100105.31;;;6.78;100.00
75640;BME280;64233;51.486;6.332;2023-04-24T09:01:40;100109.53;;;6.74;100.00
75640;BME280;64233;51.486;6.332;2023-04-24T09:04:06;100121.56;;;6.77;100.00
75640;BME280;64233;51.486;6.332;2023-04-24T09:06:32;100126.28;;;6.86;100.00
75640;BME280;64233;51.486;6.332;2023-04-24T09:09:01;100128.34;;;6.84;100.00
75640;BME280;64233;51.486;6.332;2023-04-24T09:11:30;100138.63;;;6.76;100.00
75640;BME280;64233;51.486;6.332;2023-04-24T09:13:56;100148.41;;;6.87;100.00
75640;BME280;64233;51.486;6.332;2023-04-24T09:16:21;100142.44;;;6.80;100.00
75640;BME280;64233;51.486;6.332;2023-04-24T09:18:49;100157.41;;;6.81;100.00
75640;BME280;64233;51.486;6.332;2023-04-24T09:21:14;100156.31;;;6.82;100.00
75640;BME280;64233;51.486;6.332;2023-04-24T09:23:39;100160.44;;;6.72;100.00
75640;BME280;64233;51.486;6.332;2023-04-24T09:26:05;100172.13;;;6.83;100.00
75640;BME280;64233;51.486;6.332;2023-04-24T09:28:34;100176.34;;;6.96;100.00
75640;BME280;64233;51.486;6.332;2023-04-24T09:33:32;100190.47;;;6.97;100.00
75640;BME280;64233;51.486;6.332;2023-04-24T09:35:57;100194.34;;;6.89;100.00
75640;BME280;64233;51.486;6.332;2023-04-24T09:38:36;100198.13;;;6.93;100.00
75640;BME280;64233;51.486;6.332;2023-04-24T09:41:13;100201.06;;;6.92;100.00
75640;BME280;64233;51.486;6.332;2023-04-24T09:43:38;100205.94;;;6.95;100.00
75640;BME280;64233;51.486;6.332;2023-04-24T09:46:06;100210.78;;;6.98;100.00
75640;BME280;64233;51.486;6.332;2023-04-24T09:48:36;100215.72;;;7.06;100.00
75640;BME280;64233;51.486;6.332;2023-04-24T09:51:03;100218.69;;;6.93;100.00
75640;BME280;64233;51.486;6.332;2023-04-24T09:53:30;100230.66;;;7.07;100.00
75640;BME280;64233;51.486;6.332;2023-04-24T09:55:56;100230.44;;;7.09;100.00
75640;BME280;64233;51.486;6.332;2023-04-24T09:58:29;100241.75;;;7.16;100.00
75640;BME280;64233;51.486;6.332;2023-04-24T10:00:55;100243.13;;;7.18;100.00
75640;BME280;64233;51.486;6.332;2023-04-24T10:03:24;100258.84;;;7.15;100.00
75640;BME280;64233;51.486;6.332;2023-04-24T10:05:51;100254.47;;;7.26;100.00
75640;BME280;64233;51.486;6.332;2023-04-24T10:08:16;100255.59;;;7.30;100.00
75640;BME280;64233;51.486;6.332;2023-04-24T10:10:43;100267.66;;;7.32;100.00
75640;BME280;64233;51.486;6.332;2023-04-24T10:13:10;100270.25;;;7.44;100.00
75640;BME280;64233;51.486;6.332;2023-04-24T10:15:36;100272.22;;;7.32;100.00
75640;BME280;64233;51.486;6.332;2023-04-24T10:18:04;100268.00;;;7.36;100.00
75640;BME280;64233;51.486;6.332;2023-04-24T10:20:30;100273.00;;;7.32;100.00
75640;BME280;64233;51.486;6.332;2023-04-24T10:22:57;100280.06;;;7.55;100.00
75640;BME280;64233;51.486;6.332;2023-04-24T10:25:25;100291.56;;;7.73;100.00
75640;BME280;64233;51.486;6.332;2023-04-24T10:27:52;100294.63;;;7.82;100.00
75640;BME280;64233;51.486;6.332;2023-04-24T10:30:19;100289.84;;;7.84;100.00
75640;BME280;64233;51.486;6.332;2023-04-24T10:32:45;100294.38;;;8.39;100.00
75640;BME280;64233;51.486;6.332;2023-04-24T10:35:14;100299.16;;;8.37;100.00
75640;BME280;64233;51.486;6.332;2023-04-24T10:37:54;100296.59;;;8.25;100.00
75640;BME280;64233;51.486;6.332;2023-04-24T10:40:26;100302.22;;;8.46;100.00
75640;BME280;64233;51.486;6.332;2023-04-24T10:42:52;100307.69;;;8.34;100.00
75640;BME280;64233;51.486;6.332;2023-04-24T10:45:23;100302.94;;;8.02;100.00
75640;BME280;64233;51.486;6.332;2023-04-24T10:48:02;100314.06;;;7.94;100.00
75640;BME280;64233;51.486;6.332;2023-04-24T10:50:30;100314.63;;;7.79;100.00
75640;BME280;64233;51.486;6.332;2023-04-24T10:53:08;100320.72;;;7.74;100.00
75640;BME280;64233;51.486;6.332;2023-04-24T10:55:50;100321.34;;;7.65;100.00
75640;BME280;64233;51.486;6.332;2023-04-24T10:58:16;100329.03;;;7.61;100.00
75640;BME280;64233;51.486;6.332;2023-04-24T11:00:43;100332.56;;;7.50;100.00
75640;BME280;64233;51.486;6.332;2023-04-24T11:03:26;100341.59;;;7.61;100.00
75640;BME280;64233;51.486;6.332;2023-04-24T11:06:18;100337.72;;;7.85;100.00
75640;BME280;64233;51.486;6.332;2023-04-24T11:09:01;100342.34;;;7.73;100.00
75640;BME280;64233;51.486;6.332;2023-04-24T11:11:28;100345.31;;;7.93;100.00
75640;BME280;64233;51.486;6.332;2023-04-24T11:18:52;100342.47;;;8.17;100.00
75640;BME280;64233;51.486;6.332;2023-04-24T11:21:20;100364.91;;;8.16;100.00
75640;BME280;64233;51.486;6.332;2023-04-24T11:23:46;100363.94;;;8.22;100.00
75640;BME280;64233;51.486;6.332;2023-04-24T11:26:13;100368.44;;;8.56;100.00
75640;BME280;64233;51.486;6.332;2023-04-24T11:28:48;100366.84;;;8.55;100.00
75640;BME280;64233;51.486;6.332;2023-04-24T11:31:39;100368.25;;;8.63;100.00
75640;BME280;64233;51.486;6.332;2023-04-24T11:34:11;100378.00;;;8.52;100.00
75640;BME280;64233;51.486;6.332;2023-04-24T11:36:37;100374.53;;;8.51;100.00
75640;BME280;64233;51.486;6.332;2023-04-24T11:39:03;100372.59;;;8.30;100.00
75640;BME280;64233;51.486;6.332;2023-04-24T11:41:28;100374.03;;;8.37;100.00
75640;BME280;64233;51.486;6.332;2023-04-24T11:43:55;100383.47;;;8.23;100.00
75640;BME280;64233;51.486;6.332;2023-04-24T11:46:21;100388.91;;;8.11;100.00
75640;BME280;64233;51.486;6.332;2023-04-24T11:48:46;100402.34;;;8.16;100.00
75640;BME280;64233;51.486;6.332;2023-04-24T11:51:13;100418.06;;;8.13;100.00
75640;BME280;64233;51.486;6.332;2023-04-24T11:53:38;100407.94;;;8.15;100.00
75640;BME280;64233;51.486;6.332;2023-04-24T11:56:04;100421.69;;;8.23;100.00
75640;BME280;64233;51.486;6.332;2023-04-24T11:58:44;100429.41;;;8.37;100.00
75640;BME280;64233;51.486;6.332;2023-04-24T12:01:09;100421.22;;;8.26;100.00
75640;BME280;64233;51.486;6.332;2023-04-24T12:03:34;100442.19;;;8.35;100.00
75640;BME280;64233;51.486;6.332;2023-04-24T12:06:07;100436.94;;;8.23;100.00
75640;BME280;64233;51.486;6.332;2023-04-24T12:08:33;100453.53;;;8.25;100.00
75640;BME280;64233;51.486;6.332;2023-04-24T12:11:03;100439.69;;;8.11;100.00
75640;BME280;64233;51.486;6.332;2023-04-24T12:13:29;100434.75;;;8.03;100.00
75640;BME280;64233;51.486;6.332;2023-04-24T12:15:56;100447.13;;;8.26;100.00
75640;BME280;64233;51.486;6.332;2023-04-24T12:18:23;100430.03;;;8.44;100.00
75640;BME280;64233;51.486;6.332;2023-04-24T12:20:49;100446.91;;;8.61;100.00
75640;BME280;64233;51.486;6.332;2023-04-24T12:23:14;100439.75;;;8.67;100.00
75640;BME280;64233;51.486;6.332;2023-04-24T12:25:40;100457.78;;;8.72;100.00
75640;BME280;64233;51.486;6.332;2023-04-24T12:30:38;100463.84;;;8.67;100.00
75640;BME280;64233;51.486;6.332;2023-04-24T12:33:04;100459.31;;;8.68;100.00
75640;BME280;64233;51.486;6.332;2023-04-24T12:35:31;100457.84;;;8.60;100.00
75640;BME280;64233;51.486;6.332;2023-04-24T12:38:09;100465.56;;;8.39;100.00
75640;BME280;64233;51.486;6.332;2023-04-24T12:40:35;100470.66;;;8.41;100.00
75640;BME280;64233;51.486;6.332;2023-04-24T12:43:00;100473.09;;;8.42;100.00
75640;BME280;64233;51.486;6.332;2023-04-24T12:45:26;100467.59;;;8.66;100.00
75640;BME280;64233;51.486;6.332;2023-04-24T12:47:53;100473.34;;;8.75;100.00
75640;BME280;64233;51.486;6.332;2023-04-24T12:50:18;100483.72;;;8.54;100.00
75640;BME280;64233;51.486;6.332;2023-04-24T12:52:44;100477.56;;;8.54;100.00
75640;BME280;64233;51.486;6.332;2023-04-24T12:55:10;100484.94;;;8.64;100.00
75640;BME280;64233;51.486;6.332;2023-04-24T12:57:38;100480.88;;;8.61;100.00
75640;BME280;64233;51.486;6.332;2023-04-24T13:00:06;100474.25;;;8.47;100.00
75640;BME280;64233;51.486;6.332;2023-04-24T13:02:32;100478.38;;;8.54;100.00
75640;BME280;64233;51.486;6.332;2023-04-24T13:04:58;100484.59;;;8.43;100.00